»·PEaware :: IBE6117 LEMD-KMIA

IBE6117 :: LEMD-KMIA

FLIGHT INFORMATION

Flight Status: Arrived
Operator:
Iberia
More flights by this operator :: More flights under this callsign
Pilot: Timothy W. (9658)
Aircraft: Unknown
(A359)
More flights by this aircraft type
Origin: LEMD Barajas
Spain
Destination: KMIA Miami Intl
United States
More flights between these airports :: More routes between these airports
Route: BARD2B BARDI/N0487F350 ARMED/M084F360 43N020W 43N030W 43N040W/N0486F380 36N060W 32N070W ZFP FLIPR5
File this flight plan on PilotEdge
Remarks:
Altitude:
(Current/Filed)
31,000ft
Speed:
(Current/Filed)
488kts
Departed: 28-Sep-18 04:25 AM
Arrived: 28-Sep-18 12:48 PM
Distance/Time
Traveled:
3835nm/8:23
Distance/Time
To Go:
Arrived

Flight Plot

Page will automatically refresh every two minutes.

Flight plan parsing failed; only flown route is shown


Map Options




Map Legend


Flown Route
Filed Route
Departure Airport
Arrival Airport
Navaid (VOR, NDB)
Fix

Horizontal Profiles

Position Reports

Time Latitude Longitude Heading Altitude Ground
Speed
28-Sep-18 04:03 40.495572 -3.568926 88 2011ft 0kts
28-Sep-18 04:04 40.495572 -3.568926 88 2011ft 0kts
28-Sep-18 04:05 40.495572 -3.568926 88 2011ft 0kts
28-Sep-18 04:06 40.495572 -3.568926 88 2011ft 0kts
28-Sep-18 04:07 40.495572 -3.568926 88 2011ft 0kts
28-Sep-18 04:08 40.495572 -3.568926 88 2011ft 0kts
28-Sep-18 04:09 40.495572 -3.568926 88 2011ft 0kts
28-Sep-18 04:10 40.495572 -3.568926 88 2011ft 0kts
28-Sep-18 04:11 40.495572 -3.568926 88 2011ft 0kts
28-Sep-18 04:12 40.495572 -3.568926 88 2011ft 0kts
28-Sep-18 04:13 40.495567 -3.569184 88 2012ft 2kts
28-Sep-18 04:14 40.495822 -3.570027 154 2011ft 2kts
28-Sep-18 04:15 40.496347 -3.570090 179 2011ft 2kts
28-Sep-18 04:16 40.496937 -3.570096 179 2011ft 2kts
28-Sep-18 04:17 40.497117 -3.570098 179 2011ft 0kts
28-Sep-18 04:18 40.496813 -3.570096 179 2011ft 6kts
28-Sep-18 04:19 40.493145 -3.570202 212 2012ft 13kts
28-Sep-18 04:20 40.490605 -3.571204 179 2011ft 11kts
28-Sep-18 04:21 40.487755 -3.571585 240 2011ft 6kts
28-Sep-18 04:22 40.486787 -3.573468 183 2011ft 8kts
28-Sep-18 04:23 40.485968 -3.574242 232 2011ft 0kts
28-Sep-18 04:24 40.485828 -3.574484 232 2011ft 5kts
28-Sep-18 04:25 40.484764 -3.575908 165 2011ft 2kts
28-Sep-18 04:26 40.484618 -3.575773 142 2011ft 0kts
28-Sep-18 04:27 40.461093 -3.551645 141 2514ft 191kts
28-Sep-18 04:28 40.419298 -3.509258 142 4887ft 222kts
28-Sep-18 04:29 40.362186 -3.451847 141 7121ft 283kts
28-Sep-18 04:30 40.298518 -3.388389 150 10267ft 296kts
28-Sep-18 04:31 40.216637 -3.422660 233 11838ft 357kts
28-Sep-18 04:32 40.214262 -3.548883 282 14333ft 369kts
28-Sep-18 04:33 40.234285 -3.683438 281 16700ft 386kts
28-Sep-18 04:34 40.254575 -3.823908 281 18896ft 401kts
28-Sep-18 04:35 40.275454 -3.970175 280 20958ft 416kts
28-Sep-18 04:36 40.296806 -4.121096 279 22925ft 429kts
28-Sep-18 04:37 40.318997 -4.275492 278 24789ft 441kts
28-Sep-18 04:38 40.341124 -4.435046 277 26646ft 449kts
28-Sep-18 04:39 40.363355 -4.597603 277 28390ft 458kts
28-Sep-18 04:40 40.385809 -4.763062 276 30068ft 466kts
28-Sep-18 04:41 40.408322 -4.931721 277 31271ft 469kts
28-Sep-18 04:42 40.430471 -5.099268 278 31276ft 467kts
28-Sep-18 04:43 40.452959 -5.265621 277 31276ft 467kts
28-Sep-18 04:44 40.474814 -5.433575 277 31276ft 467kts
28-Sep-18 04:45 40.496145 -5.600682 277 31276ft 467kts
28-Sep-18 04:46 40.517321 -5.768624 277 31276ft 467kts
28-Sep-18 04:47 40.538298 -5.936917 277 31276ft 467kts
28-Sep-18 04:48 40.559222 -6.104889 276 31276ft 467kts
28-Sep-18 04:49 40.580216 -6.271319 276 31276ft 467kts
28-Sep-18 04:50 40.611706 -6.437854 288 31931ft 476kts
28-Sep-18 04:51 40.668817 -6.596627 290 33272ft 484kts
28-Sep-18 04:52 40.716191 -6.761143 288 33277ft 481kts
28-Sep-18 04:53 40.762448 -6.924698 288 33277ft 481kts
28-Sep-18 04:54 40.808369 -7.088015 289 33268ft 475kts
28-Sep-18 04:55 40.855107 -7.252767 289 33235ft 471kts
28-Sep-18 04:56 40.900513 -7.415082 289 33225ft 471kts
28-Sep-18 04:57 40.945375 -7.577411 289 33225ft 471kts
28-Sep-18 04:58 40.989798 -7.739328 289 33225ft 470kts
28-Sep-18 04:59 41.033812 -7.900843 289 33225ft 467kts
28-Sep-18 05:00 41.077665 -8.062809 290 33225ft 466kts
28-Sep-18 05:01 41.121552 -8.223823 290 33223ft 467kts
28-Sep-18 05:02 41.164900 -8.384630 290 33223ft 468kts
28-Sep-18 05:03 41.207780 -8.545897 290 33224ft 467kts
28-Sep-18 05:04 41.250528 -8.707899 290 33222ft 467kts
28-Sep-18 05:05 41.293325 -8.871179 290 33225ft 468kts
28-Sep-18 05:06 41.335550 -9.033419 290 33225ft 470kts
28-Sep-18 05:07 41.378893 -9.199291 290 33225ft 473kts
28-Sep-18 05:08 41.421753 -9.364470 289 33225ft 473kts
28-Sep-18 05:09 41.463967 -9.529768 289 33225ft 473kts
28-Sep-18 05:10 41.505860 -9.695136 289 33225ft 473kts
28-Sep-18 05:11 41.547933 -9.862405 289 33225ft 473kts
28-Sep-18 05:12 41.589774 -10.028054 289 33225ft 473kts
28-Sep-18 05:13 41.631631 -10.194609 289 33225ft 473kts
28-Sep-18 05:14 41.673035 -10.360835 289 33225ft 473kts
28-Sep-18 05:15 41.714052 -10.528388 289 33225ft 473kts
28-Sep-18 05:16 41.754563 -10.695281 289 33225ft 473kts
28-Sep-18 05:17 41.794865 -10.862490 288 33225ft 476kts
28-Sep-18 05:18 41.835372 -11.031577 287 33231ft 477kts
28-Sep-18 05:19 41.875889 -11.200627 287 33238ft 475kts
28-Sep-18 05:20 41.915256 -11.365860 287 33244ft 475kts
28-Sep-18 05:21 41.955636 -11.538279 287 33249ft 475kts
28-Sep-18 05:22 41.994895 -11.707386 287 33249ft 475kts
28-Sep-18 05:23 42.033893 -11.876661 287 33249ft 475kts
28-Sep-18 05:24 42.072462 -12.045361 287 33248ft 475kts
28-Sep-18 05:25 42.111644 -12.215728 286 33249ft 475kts
28-Sep-18 05:26 42.150358 -12.386064 286 33249ft 475kts
28-Sep-18 05:27 42.188365 -12.556051 286 33249ft 475kts
28-Sep-18 05:28 42.226197 -12.726723 286 33249ft 475kts
28-Sep-18 05:29 42.263846 -12.897928 286 33249ft 475kts
28-Sep-18 05:30 42.301110 -13.068617 286 33249ft 475kts
28-Sep-18 05:31 42.338521 -13.238656 285 33249ft 468kts
28-Sep-18 05:32 42.374912 -13.407143 285 33249ft 468kts
28-Sep-18 05:33 42.410939 -13.576280 285 33249ft 468kts
28-Sep-18 05:34 42.446643 -13.745302 285 33249ft 468kts
28-Sep-18 05:35 42.482193 -13.914901 285 33249ft 468kts
28-Sep-18 05:36 42.509443 -14.087870 278 34014ft 474kts
28-Sep-18 05:37 42.529172 -14.264415 277 35530ft 479kts
28-Sep-18 05:38 42.548163 -14.441081 277 36243ft 475kts
28-Sep-18 05:39 42.567136 -14.617906 277 36229ft 475kts
28-Sep-18 05:40 42.585564 -14.795636 277 36226ft 475kts
28-Sep-18 05:41 42.603461 -14.972410 277 36227ft 470kts
28-Sep-18 05:42 42.620583 -15.144226 279 36228ft 459kts
28-Sep-18 05:43 42.638275 -15.315973 278 36227ft 459kts
28-Sep-18 05:44 42.655010 -15.487665 278 36225ft 459kts
28-Sep-18 05:45 42.670993 -15.655681 278 36226ft 459kts
28-Sep-18 05:46 42.687049 -15.827447 278 36227ft 459kts
28-Sep-18 05:47 42.702851 -15.999352 278 36226ft 459kts
28-Sep-18 05:48 42.718159 -16.165856 278 36226ft 459kts
28-Sep-18 05:49 42.734602 -16.343433 278 36227ft 459kts
28-Sep-18 05:50 42.749731 -16.515602 277 36223ft 459kts
28-Sep-18 05:51 42.764557 -16.688367 277 36226ft 459kts
28-Sep-18 05:52 42.779026 -16.860390 278 36226ft 456kts
28-Sep-18 05:53 42.792811 -17.028210 279 36227ft 438kts
28-Sep-18 05:54 42.806557 -17.191292 279 36226ft 434kts
28-Sep-18 05:55 42.820153 -17.355034 279 36226ft 435kts
28-Sep-18 05:56 42.833030 -17.518349 279 36225ft 435kts
28-Sep-18 05:57 42.845626 -17.681954 279 36226ft 435kts
28-Sep-18 05:58 42.857955 -17.845413 279 36231ft 435kts
28-Sep-18 05:59 42.870107 -18.009666 279 36267ft 435kts
28-Sep-18 06:00 42.882239 -18.172650 279 36299ft 434kts
28-Sep-18 06:01 42.894389 -18.335265 278 36304ft 435kts
28-Sep-18 06:02 42.905935 -18.499671 278 36304ft 437kts
28-Sep-18 06:03 42.917176 -18.664427 277 36304ft 438kts
28-Sep-18 06:04 42.928209 -18.829869 277 36304ft 439kts
28-Sep-18 06:05 42.939050 -18.996099 276 36307ft 440kts
28-Sep-18 06:06 42.949755 -19.160461 276 36306ft 437kts
28-Sep-18 06:07 42.960418 -19.321951 276 36305ft 436kts
28-Sep-18 06:08 42.970765 -19.490703 276 36305ft 436kts
28-Sep-18 06:09 42.980522 -19.655161 276 36304ft 436kts
28-Sep-18 06:10 42.990089 -19.821069 275 36306ft 437kts
28-Sep-18 06:11 42.999351 -19.985743 275 36305ft 437kts
28-Sep-18 06:12 43.006965 -20.151327 274 36307ft 437kts
28-Sep-18 06:13 43.013209 -20.289489 274 36304ft 438kts
28-Sep-18 06:14 43.021012 -20.483479 274 36305ft 438kts
28-Sep-18 06:15 43.027278 -20.649518 273 36303ft 438kts
28-Sep-18 06:16 43.032289 -20.787636 273 36305ft 438kts
28-Sep-18 06:17 43.039033 -20.981479 273 36304ft 433kts
28-Sep-18 06:18 43.043530 -21.116037 273 36309ft 423kts
28-Sep-18 06:19 43.050222 -21.298600 273 36305ft 421kts
28-Sep-18 06:20 43.054567 -21.434926 273 36305ft 421kts
28-Sep-18 06:21 43.059300 -21.594964 273 36305ft 421kts
28-Sep-18 06:22 43.063774 -21.754853 273 36304ft 421kts
28-Sep-18 06:23 43.068002 -21.914313 273 36304ft 421kts
28-Sep-18 06:24 43.072663 -22.100727 272 36304ft 421kts
28-Sep-18 06:25 43.076477 -22.234248 273 36306ft 421kts
28-Sep-18 06:26 43.080372 -22.393483 272 36304ft 421kts
28-Sep-18 06:27 43.083790 -22.553177 272 36304ft 421kts
28-Sep-18 06:28 43.086923 -22.713331 272 36286ft 421kts
28-Sep-18 06:29 43.089832 -22.872866 272 36229ft 420kts
28-Sep-18 06:30 43.092489 -23.031111 272 36117ft 418kts
28-Sep-18 06:31 43.095383 -23.190540 272 36033ft 418kts
28-Sep-18 06:32 43.098113 -23.348858 272 36017ft 418kts
28-Sep-18 06:33 43.100223 -23.507775 271 36015ft 418kts
28-Sep-18 06:34 43.102036 -23.667452 271 36015ft 418kts
28-Sep-18 06:35 43.103606 -23.826508 271 36015ft 418kts
28-Sep-18 06:36 43.104950 -23.985628 271 36015ft 418kts
28-Sep-18 06:37 43.106223 -24.144642 271 36018ft 418kts
28-Sep-18 06:38 43.107852 -24.303536 272 36015ft 418kts
28-Sep-18 06:39 43.108701 -24.462825 271 36015ft 419kts
28-Sep-18 06:40 43.109272 -24.648796 271 36015ft 419kts
28-Sep-18 06:41 43.109461 -24.781273 271 36015ft 419kts
28-Sep-18 06:42 43.109491 -24.940258 271 36015ft 419kts
28-Sep-18 06:43 43.109289 -25.100329 271 36015ft 423kts
28-Sep-18 06:44 43.109636 -25.261719 271 36015ft 427kts
28-Sep-18 06:45 43.109239 -25.424167 271 36015ft 427kts
28-Sep-18 06:46 43.108407 -25.585246 271 36015ft 427kts
28-Sep-18 06:47 43.107296 -25.748527 271 36015ft 427kts
28-Sep-18 06:48 43.105957 -25.910120 271 36015ft 427kts
28-Sep-18 06:49 43.104392 -26.072025 271 36015ft 427kts
28-Sep-18 06:50 43.103288 -26.230182 271 36015ft 427kts
28-Sep-18 06:51 43.101565 -26.396862 270 36015ft 427kts
28-Sep-18 06:52 43.099376 -26.558742 270 36015ft 427kts
28-Sep-18 06:53 43.096888 -26.721406 270 36015ft 427kts
28-Sep-18 06:54 43.094173 -26.883771 270 36015ft 427kts
28-Sep-18 06:55 43.091204 -27.047567 270 36014ft 436kts
28-Sep-18 06:56 43.088501 -27.214740 270 36015ft 443kts
28-Sep-18 06:57 43.085378 -27.382899 269 36015ft 443kts
28-Sep-18 06:58 43.081635 -27.551656 269 36015ft 443kts
28-Sep-18 06:59 43.077607 -27.719820 269 36015ft 443kts
28-Sep-18 07:00 43.073332 -27.887709 269 36015ft 443kts
28-Sep-18 07:01 43.068807 -28.055631 269 36015ft 443kts
28-Sep-18 07:02 43.064646 -28.223904 269 36015ft 443kts
28-Sep-18 07:03 43.060015 -28.391504 269 36027ft 443kts
28-Sep-18 07:04 43.054815 -28.559146 269 36184ft 443kts
28-Sep-18 07:05 43.049325 -28.726569 269 36327ft 442kts
28-Sep-18 07:06 43.043565 -28.894916 269 36354ft 447kts
28-Sep-18 07:07 43.037444 -29.066663 268 36359ft 458kts
28-Sep-18 07:08 43.031622 -29.240520 268 36359ft 458kts
28-Sep-18 07:09 43.025158 -29.413851 267 36359ft 458kts
28-Sep-18 07:10 43.018139 -29.587474 267 36359ft 458kts
28-Sep-18 07:11 43.010818 -29.760723 267 36359ft 457kts
28-Sep-18 07:12 43.003198 -29.934166 267 36359ft 457kts
28-Sep-18 07:13 43.005055 -30.104996 273 36359ft 456kts
28-Sep-18 07:14 43.012998 -30.278174 273 36359ft 457kts
28-Sep-18 07:15 43.020068 -30.451638 273 36359ft 457kts
28-Sep-18 07:16 43.026677 -30.625384 273 36359ft 457kts
28-Sep-18 07:17 43.032908 -30.796713 273 36359ft 457kts
28-Sep-18 07:18 43.038957 -30.970380 274 36359ft 458kts
28-Sep-18 07:19 43.044952 -31.145896 273 36359ft 468kts
28-Sep-18 07:20 43.051401 -31.323899 273 36359ft 473kts
28-Sep-18 07:21 43.056933 -31.502821 273 36359ft 473kts
28-Sep-18 07:22 43.062075 -31.681933 273 36359ft 473kts
28-Sep-18 07:23 43.066933 -31.861349 273 36359ft 473kts
28-Sep-18 07:24 43.071521 -32.041288 273 36359ft 473kts
28-Sep-18 07:25 43.076403 -32.221119 272 36359ft 473kts
28-Sep-18 07:26 43.080860 -32.400550 272 36359ft 473kts
28-Sep-18 07:27 43.084551 -32.575197 272 36359ft 473kts
28-Sep-18 07:28 43.088089 -32.758628 272 36359ft 473kts
28-Sep-18 07:29 43.091253 -32.938309 272 36359ft 475kts
28-Sep-18 07:30 43.094272 -33.121210 271 36359ft 486kts
28-Sep-18 07:31 43.097752 -33.303227 271 36359ft 486kts
28-Sep-18 07:32 43.100307 -33.487940 271 36359ft 486kts
28-Sep-18 07:33 43.102409 -33.672647 271 36359ft 486kts
28-Sep-18 07:34 43.104195 -33.856982 271 36359ft 486kts
28-Sep-18 07:35 43.105684 -34.041228 271 36359ft 486kts
28-Sep-18 07:36 43.107484 -34.225974 270 36359ft 486kts
28-Sep-18 07:37 43.108824 -34.410740 270 36359ft 486kts
28-Sep-18 07:38 43.109473 -34.595487 270 36359ft 486kts
28-Sep-18 07:39 43.109763 -34.779692 270 36344ft 484kts
28-Sep-18 07:40 43.109799 -34.963815 270 36335ft 490kts
28-Sep-18 07:41 43.109686 -35.150922 269 36334ft 494kts
28-Sep-18 07:42 43.109870 -35.338612 269 36335ft 494kts
28-Sep-18 07:43 43.109077 -35.526369 269 36335ft 494kts
28-Sep-18 07:44 43.107873 -35.713759 269 36335ft 494kts
28-Sep-18 07:45 43.106350 -35.901760 269 36335ft 494kts
28-Sep-18 07:46 43.104530 -36.088682 269 36335ft 494kts
28-Sep-18 07:47 43.103217 -36.276520 269 36335ft 494kts
28-Sep-18 07:48 43.101045 -36.463317 268 36335ft 494kts
28-Sep-18 07:49 43.098303 -36.651986 268 36335ft 494kts
28-Sep-18 07:50 43.095261 -36.839035 268 36335ft 494kts
28-Sep-18 07:51 43.091911 -37.026269 268 36335ft 495kts
28-Sep-18 07:52 43.088759 -37.216021 268 36334ft 502kts
28-Sep-18 07:53 43.085216 -37.406410 268 36335ft 502kts
28-Sep-18 07:54 43.080898 -37.596991 268 36335ft 502kts
28-Sep-18 07:55 43.076228 -37.787473 268 36335ft 502kts
28-Sep-18 07:56 43.071229 -37.978371 267 36335ft 502kts
28-Sep-18 07:57 43.066186 -38.169090 267 36334ft 502kts
28-Sep-18 07:58 43.061293 -38.359535 267 36335ft 502kts
28-Sep-18 07:59 43.055428 -38.549846 267 36335ft 502kts
28-Sep-18 08:00 43.049171 -38.740319 267 36335ft 502kts
28-Sep-18 08:01 43.042612 -38.930171 267 36335ft 503kts
28-Sep-18 08:02 43.035744 -39.119577 267 36332ft 508kts
28-Sep-18 08:03 43.029322 -39.313034 267 36335ft 509kts
28-Sep-18 08:04 43.021779 -39.505588 267 36335ft 509kts
28-Sep-18 08:05 43.013756 -39.698036 266 36335ft 508kts
28-Sep-18 08:06 43.005318 -39.890502 266 36335ft 508kts
28-Sep-18 08:07 42.981666 -40.079716 250 36335ft 506kts
28-Sep-18 08:08 42.937539 -40.261354 250 36335ft 503kts
28-Sep-18 08:09 42.893013 -40.441290 249 36335ft 500kts
28-Sep-18 08:10 42.848451 -40.618904 249 36335ft 498kts
28-Sep-18 08:11 42.804027 -40.794596 249 36335ft 498kts
28-Sep-18 08:12 42.757758 -40.975997 250 36335ft 504kts
28-Sep-18 08:13 42.711865 -41.155830 250 36333ft 507kts
28-Sep-18 08:14 42.666094 -41.336720 250 36335ft 506kts
28-Sep-18 08:15 42.619115 -41.517494 250 36334ft 507kts
28-Sep-18 08:16 42.571898 -41.697365 250 36334ft 507kts
28-Sep-18 08:17 42.524384 -41.877000 250 36335ft 506kts
28-Sep-18 08:18 42.476719 -42.055873 250 36334ft 507kts
28-Sep-18 08:19 42.429114 -42.235521 249 36333ft 507kts
28-Sep-18 08:20 42.381001 -42.413793 249 36353ft 507kts
28-Sep-18 08:21 42.332390 -42.592256 249 36394ft 507kts
28-Sep-18 08:22 42.283411 -42.770806 249 36408ft 507kts
28-Sep-18 08:23 42.234235 -42.948803 249 36407ft 507kts
28-Sep-18 08:24 42.184988 -43.125807 249 36405ft 516kts
28-Sep-18 08:25 42.134878 -43.308557 250 36407ft 523kts
28-Sep-18 08:26 42.083519 -43.491262 249 36408ft 523kts
28-Sep-18 08:27 42.033622 -43.666800 249 36409ft 523kts
28-Sep-18 08:28 41.981390 -43.849233 250 36408ft 523kts
28-Sep-18 08:29 41.927431 -44.036338 249 36408ft 523kts
28-Sep-18 08:30 41.875464 -44.217797 249 36409ft 523kts
28-Sep-18 08:31 41.831613 -44.369642 249 36408ft 523kts
28-Sep-18 08:32 41.778521 -44.550302 249 36407ft 523kts
28-Sep-18 08:33 41.724921 -44.731198 249 36408ft 523kts
28-Sep-18 08:34 41.671118 -44.911529 249 36407ft 523kts
28-Sep-18 08:35 41.608153 -45.120856 250 36404ft 534kts
28-Sep-18 08:36 41.562612 -45.274915 250 36408ft 534kts
28-Sep-18 08:37 41.506626 -45.459717 250 36409ft 535kts
28-Sep-18 08:38 41.451093 -45.640792 250 36409ft 535kts
28-Sep-18 08:39 41.393973 -45.824055 249 36408ft 535kts
28-Sep-18 08:40 41.336391 -46.008883 249 36396ft 537kts
28-Sep-18 08:41 41.279685 -46.191730 249 36391ft 537kts
28-Sep-18 08:42 41.222627 -46.375094 249 36393ft 537kts
28-Sep-18 08:43 41.165186 -46.556246 248 36393ft 537kts
28-Sep-18 08:44 41.107032 -46.738311 248 36393ft 536kts
28-Sep-18 08:45 41.048511 -46.920329 248 36393ft 535kts
28-Sep-18 08:46 40.989551 -47.102282 248 36393ft 545kts
28-Sep-18 08:47 40.930331 -47.287563 248 36392ft 545kts
28-Sep-18 08:48 40.870461 -47.470684 248 36392ft 545kts
28-Sep-18 08:49 40.809902 -47.653988 248 36393ft 545kts
28-Sep-18 08:50 40.749166 -47.836660 248 36392ft 545kts
28-Sep-18 08:51 40.688508 -48.017896 248 36392ft 545kts
28-Sep-18 08:52 40.627496 -48.200925 248 36390ft 545kts
28-Sep-18 08:53 40.566178 -48.383709 247 36394ft 545kts
28-Sep-18 08:54 40.504063 -48.565769 248 36392ft 545kts
28-Sep-18 08:55 40.442370 -48.745277 247 36388ft 545kts
28-Sep-18 08:56 40.368523 -48.957215 247 36394ft 545kts
28-Sep-18 08:57 40.316054 -49.107770 248 36391ft 545kts
28-Sep-18 08:58 40.254007 -49.288267 248 36393ft 545kts
28-Sep-18 08:59 40.190771 -49.468300 248 36393ft 545kts
28-Sep-18 09:00 40.127001 -49.648022 248 36393ft 545kts
28-Sep-18 09:01 40.063045 -49.827002 248 36393ft 545kts
28-Sep-18 09:02 39.999350 -50.004050 249 36393ft 545kts
28-Sep-18 09:03 39.938249 -50.186793 250 36391ft 544kts
28-Sep-18 09:04 39.878050 -50.366071 249 36393ft 545kts
28-Sep-18 09:05 39.816010 -50.546651 249 36393ft 545kts
28-Sep-18 09:06 39.753973 -50.725902 249 36393ft 545kts
28-Sep-18 09:07 39.691654 -50.904908 249 36393ft 545kts
28-Sep-18 09:08 39.629834 -51.081220 250 36393ft 532kts
28-Sep-18 09:09 39.569777 -51.254549 249 36393ft 527kts
28-Sep-18 09:10 39.508970 -51.427065 249 36393ft 527kts
28-Sep-18 09:11 39.447548 -51.599320 249 36391ft 527kts
28-Sep-18 09:12 39.385598 -51.770454 249 36393ft 527kts
28-Sep-18 09:13 39.323708 -51.941685 249 36393ft 527kts
28-Sep-18 09:14 39.261815 -52.112246 249 36390ft 527kts
28-Sep-18 09:15 39.200433 -52.283471 249 36393ft 527kts
28-Sep-18 09:16 39.137810 -52.454613 248 36383ft 527kts
28-Sep-18 09:17 39.075247 -52.624067 248 36351ft 528kts
28-Sep-18 09:18 39.011840 -52.794787 248 36337ft 529kts
28-Sep-18 09:19 38.948288 -52.964889 249 36335ft 527kts
28-Sep-18 09:20 38.885167 -53.133282 249 36331ft 527kts
28-Sep-18 09:21 38.822589 -53.301888 249 36335ft 528kts
28-Sep-18 09:22 38.758129 -53.472008 248 36335ft 528kts
28-Sep-18 09:23 38.693804 -53.640430 248 36335ft 528kts
28-Sep-18 09:24 38.628768 -53.809780 248 36335ft 528kts
28-Sep-18 09:25 38.563865 -53.977843 248 36335ft 528kts
28-Sep-18 09:26 38.499221 -54.144835 248 36331ft 528kts
28-Sep-18 09:27 38.434450 -54.313120 248 36332ft 529kts
28-Sep-18 09:28 38.368443 -54.480246 248 36335ft 529kts
28-Sep-18 09:29 38.305497 -54.639591 248 36335ft 529kts
28-Sep-18 09:30 38.238975 -54.807276 248 36335ft 529kts
28-Sep-18 09:31 38.170602 -54.978695 248 36335ft 529kts
28-Sep-18 09:32 38.103942 -55.145522 247 36333ft 521kts
28-Sep-18 09:33 38.039408 -55.308022 246 36335ft 517kts
28-Sep-18 09:34 37.973921 -55.469864 246 36335ft 517kts
28-Sep-18 09:35 37.908138 -55.631346 246 36335ft 517kts
28-Sep-18 09:36 37.842483 -55.791681 246 36335ft 517kts
28-Sep-18 09:37 37.776014 -55.953174 246 36335ft 517kts
28-Sep-18 09:38 37.709513 -56.113984 245 36332ft 517kts
28-Sep-18 09:39 37.643588 -56.275245 246 36335ft 517kts
28-Sep-18 09:40 37.577597 -56.433673 245 36334ft 517kts
28-Sep-18 09:41 37.510812 -56.592717 245 36313ft 518kts
28-Sep-18 09:42 37.443162 -56.752956 245 36294ft 518kts
28-Sep-18 09:43 37.378453 -56.904279 245 36252ft 518kts
28-Sep-18 09:44 37.307965 -57.069476 245 36242ft 508kts
28-Sep-18 09:45 37.242517 -57.224358 244 36248ft 503kts
28-Sep-18 09:46 37.176553 -57.378574 244 36250ft 503kts
28-Sep-18 09:47 37.110088 -57.532348 244 36251ft 504kts
28-Sep-18 09:48 37.043067 -57.686556 244 36250ft 508kts
28-Sep-18 09:49 36.975212 -57.842009 245 36251ft 512kts
28-Sep-18 09:50 36.906745 -57.998149 245 36251ft 514kts
28-Sep-18 09:51 36.838706 -58.153251 245 36249ft 514kts
28-Sep-18 09:52 36.770269 -58.309889 244 36251ft 514kts
28-Sep-18 09:53 36.700729 -58.466381 244 36251ft 514kts
28-Sep-18 09:54 36.631339 -58.621602 244 36251ft 514kts
28-Sep-18 09:55 36.561763 -58.776505 244 36251ft 514kts
28-Sep-18 09:56 36.492246 -58.930619 244 36251ft 505kts
28-Sep-18 09:57 36.424501 -59.079679 243 36251ft 495kts
28-Sep-18 09:58 36.356927 -59.229191 242 36251ft 496kts
28-Sep-18 09:59 36.289038 -59.378154 242 36251ft 496kts
28-Sep-18 10:00 36.221073 -59.526043 242 36251ft 496kts
28-Sep-18 10:01 36.152699 -59.674070 242 36251ft 496kts
28-Sep-18 10:02 36.084039 -59.821903 242 36251ft 496kts
28-Sep-18 10:03 36.015581 -59.968991 243 36251ft 495kts
28-Sep-18 10:04 35.959570 -60.121887 249 36250ft 493kts
28-Sep-18 10:05 35.906597 -60.278789 249 36251ft 493kts
28-Sep-18 10:06 35.853134 -60.433596 249 36251ft 493kts
28-Sep-18 10:07 35.799063 -60.588840 249 36251ft 493kts
28-Sep-18 10:08 35.744889 -60.743552 249 36251ft 493kts
28-Sep-18 10:09 35.690436 -60.898283 249 36251ft 493kts
28-Sep-18 10:10 35.636029 -61.052170 249 36251ft 488kts
28-Sep-18 10:11 35.582856 -61.203858 248 36250ft 481kts
28-Sep-18 10:12 35.529600 -61.354253 247 36251ft 481kts
28-Sep-18 10:13 35.476180 -61.503225 247 36250ft 481kts
28-Sep-18 10:14 35.421605 -61.653807 247 36249ft 481kts
28-Sep-18 10:15 35.367313 -61.802772 247 36250ft 481kts
28-Sep-18 10:16 35.312822 -61.952376 247 36251ft 481kts
28-Sep-18 10:17 35.258326 -62.101387 247 36251ft 481kts
28-Sep-18 10:18 35.204488 -62.250533 247 36250ft 481kts
28-Sep-18 10:19 35.149883 -62.399171 247 36251ft 481kts
28-Sep-18 10:20 35.094753 -62.547905 247 36251ft 481kts
28-Sep-18 10:21 35.039595 -62.695958 246 36250ft 481kts
28-Sep-18 10:22 34.983896 -62.844709 247 36249ft 483kts
28-Sep-18 10:23 34.927948 -62.993511 247 36251ft 484kts
28-Sep-18 10:24 34.871883 -63.142603 247 36249ft 488kts
28-Sep-18 10:25 34.815790 -63.292727 246 36251ft 488kts
28-Sep-18 10:26 34.759182 -63.441557 246 36249ft 488kts
28-Sep-18 10:27 34.701683 -63.591721 246 36250ft 488kts
28-Sep-18 10:28 34.644377 -63.740670 246 36250ft 488kts
28-Sep-18 10:29 34.586817 -63.889606 246 36249ft 488kts
28-Sep-18 10:30 34.529315 -64.037710 246 36250ft 488kts
28-Sep-18 10:31 34.471699 -64.186973 246 36249ft 488kts
28-Sep-18 10:32 34.413970 -64.334975 245 36251ft 488kts
28-Sep-18 10:33 34.355236 -64.483706 245 36251ft 488kts
28-Sep-18 10:34 34.297115 -64.630702 245 36252ft 488kts
28-Sep-18 10:35 34.238267 -64.778950 245 36251ft 488kts
28-Sep-18 10:36 34.180130 -64.924926 245 36252ft 476kts
28-Sep-18 10:37 34.122499 -65.068841 244 36249ft 481kts
28-Sep-18 10:38 34.064804 -65.214160 244 36249ft 481kts
28-Sep-18 10:39 34.006676 -65.359075 243 36250ft 481kts
28-Sep-18 10:40 33.958039 -65.479130 243 36249ft 481kts
28-Sep-18 10:41 33.899739 -65.622345 243 36248ft 474kts
28-Sep-18 10:42 33.831805 -65.788502 243 36249ft 474kts
28-Sep-18 10:43 33.783267 -65.906712 243 36248ft 474kts
28-Sep-18 10:44 33.724862 -66.048422 243 36251ft 474kts
28-Sep-18 10:45 33.666692 -66.190548 243 36249ft 474kts
28-Sep-18 10:46 33.608381 -66.332170 243 36252ft 474kts
28-Sep-18 10:47 33.549657 -66.473052 243 36249ft 474kts
28-Sep-18 10:48 33.490542 -66.614160 243 36250ft 474kts
28-Sep-18 10:49 33.431459 -66.754276 243 36248ft 474kts
28-Sep-18 10:50 33.371753 -66.894635 243 36253ft 474kts
28-Sep-18 10:51 33.312136 -67.035101 243 36250ft 471kts
28-Sep-18 10:52 33.253795 -67.173410 242 36252ft 465kts
28-Sep-18 10:53 33.195640 -67.310900 242 36248ft 463kts
28-Sep-18 10:54 33.137393 -67.446802 242 36251ft 463kts
28-Sep-18 10:55 33.078284 -67.584129 241 36250ft 467kts
28-Sep-18 10:56 33.018358 -67.722693 241 36250ft 474kts
28-Sep-18 10:57 32.957563 -67.862619 241 36250ft 482kts
28-Sep-18 10:58 32.895769 -68.004401 241 36251ft 483kts
28-Sep-18 10:59 32.834175 -68.145750 241 36251ft 483kts
28-Sep-18 11:00 32.772875 -68.287251 240 36251ft 482kts
28-Sep-18 11:01 32.710826 -68.428186 240 36251ft 483kts
28-Sep-18 11:02 32.648913 -68.568013 240 36251ft 482kts
28-Sep-18 11:03 32.586486 -68.708431 240 36251ft 482kts
28-Sep-18 11:04 32.524052 -68.848312 240 36251ft 482kts
28-Sep-18 11:05 32.461432 -68.988098 240 36251ft 481kts
28-Sep-18 11:06 32.398611 -69.127073 240 36251ft 478kts
28-Sep-18 11:07 32.336662 -69.266011 240 36251ft 478kts
28-Sep-18 11:08 32.274300 -69.403850 240 36251ft 478kts
28-Sep-18 11:09 32.211480 -69.541897 240 36251ft 478kts
28-Sep-18 11:10 32.148600 -69.679501 240 36251ft 478kts
28-Sep-18 11:11 32.085534 -69.816895 239 36251ft 477kts
28-Sep-18 11:12 32.022422 -69.953621 239 36251ft 478kts
28-Sep-18 11:13 31.956916 -70.081807 234 36250ft 476kts
28-Sep-18 11:14 31.880715 -70.216935 234 36251ft 476kts
28-Sep-18 11:15 31.807854 -70.346080 234 36251ft 476kts
28-Sep-18 11:16 31.734556 -70.475220 234 36251ft 476kts
28-Sep-18 11:17 31.661097 -70.604171 234 36249ft 476kts
28-Sep-18 11:18 31.627483 -70.663031 234 36239ft 476kts
28-Sep-18 11:19 31.515999 -70.857635 234 38164ft 477kts
28-Sep-18 11:20 31.441913 -70.986314 234 38156ft 478kts
28-Sep-18 11:21 31.368510 -71.112670 234 38154ft 478kts
28-Sep-18 11:22 31.291161 -71.248015 234 38154ft 478kts
28-Sep-18 11:23 31.219824 -71.371159 234 38154ft 478kts
28-Sep-18 11:24 31.142205 -71.504352 234 38154ft 478kts
28-Sep-18 11:25 31.067371 -71.632283 234 38154ft 478kts
28-Sep-18 11:26 30.992693 -71.759579 234 38154ft 480kts
28-Sep-18 11:27 30.916752 -71.888573 233 38154ft 484kts
28-Sep-18 11:28 30.840245 -72.018069 233 38154ft 488kts
28-Sep-18 11:29 30.763506 -72.148167 233 38154ft 488kts
28-Sep-18 11:30 30.687134 -72.278171 233 38154ft 488kts
28-Sep-18 11:31 30.609938 -72.407799 233 38154ft 488kts
28-Sep-18 11:32 30.532719 -72.536847 233 38154ft 488kts
28-Sep-18 11:33 30.456033 -72.664577 233 38154ft 488kts
28-Sep-18 11:34 30.377754 -72.793754 233 38154ft 488kts
28-Sep-18 11:35 30.299823 -72.922490 233 38154ft 488kts
28-Sep-18 11:36 30.222757 -73.049600 233 38154ft 488kts
28-Sep-18 11:37 30.144848 -73.178870 233 38154ft 487kts
28-Sep-18 11:38 30.067537 -73.306646 233 38154ft 487kts
28-Sep-18 11:39 29.989340 -73.434551 233 38154ft 487kts
28-Sep-18 11:40 29.911299 -73.561690 233 38154ft 487kts
28-Sep-18 11:41 29.835886 -73.684157 233 38156ft 488kts
28-Sep-18 11:42 29.754652 -73.815674 233 38160ft 488kts
28-Sep-18 11:43 29.677886 -73.939571 233 38157ft 488kts
28-Sep-18 11:44 29.597406 -74.069057 233 38143ft 488kts
28-Sep-18 11:45 29.519207 -74.195886 232 38137ft 488kts
28-Sep-18 11:46 29.442535 -74.319234 232 38136ft 488kts
28-Sep-18 11:47 29.361013 -74.448454 232 38136ft 488kts
28-Sep-18 11:48 29.281900 -74.574045 232 38136ft 488kts
28-Sep-18 11:49 29.202672 -74.699575 232 38136ft 488kts
28-Sep-18 11:50 29.125155 -74.822037 232 38136ft 488kts
28-Sep-18 11:51 29.043166 -74.951213 232 38136ft 493kts
28-Sep-18 11:52 28.962267 -75.078208 232 38136ft 499kts
28-Sep-18 11:53 28.881269 -75.206498 231 38136ft 500kts
28-Sep-18 11:54 28.799716 -75.334417 231 38136ft 499kts
28-Sep-18 11:55 28.717898 -75.461767 231 38137ft 499kts
28-Sep-18 11:56 28.635672 -75.589320 231 38136ft 499kts
28-Sep-18 11:57 28.553556 -75.716320 231 38136ft 499kts
28-Sep-18 11:58 28.471445 -75.842930 231 38136ft 499kts
28-Sep-18 11:59 28.388773 -75.969422 231 38136ft 499kts
28-Sep-18 12:00 28.306369 -76.095427 231 38136ft 499kts
28-Sep-18 12:01 28.224188 -76.222635 231 38136ft 499kts
28-Sep-18 12:02 28.141715 -76.348755 231 38136ft 499kts
28-Sep-18 12:03 28.058918 -76.474583 231 38136ft 499kts
28-Sep-18 12:04 27.976276 -76.599783 231 38136ft 499kts
28-Sep-18 12:05 27.893149 -76.725351 231 38137ft 499kts
28-Sep-18 12:06 27.810129 -76.850379 231 38137ft 499kts
28-Sep-18 12:07 27.727161 -76.974962 231 38137ft 497kts
28-Sep-18 12:08 27.644632 -77.098575 231 38136ft 495kts
28-Sep-18 12:09 27.562420 -77.222969 231 38136ft 495kts
28-Sep-18 12:10 27.479625 -77.346651 231 38136ft 495kts
28-Sep-18 12:11 27.396165 -77.470078 231 38136ft 495kts
28-Sep-18 12:12 27.312888 -77.593040 231 38136ft 495kts
28-Sep-18 12:13 27.230811 -77.714215 231 38136ft 495kts
28-Sep-18 12:14 27.147398 -77.837049 231 38136ft 495kts
28-Sep-18 12:15 27.064675 -77.958535 231 38136ft 495kts
28-Sep-18 12:16 26.980790 -78.081388 231 38136ft 498kts
28-Sep-18 12:17 26.897033 -78.205032 230 38136ft 503kts
28-Sep-18 12:18 26.812032 -78.329203 230 38137ft 505kts
28-Sep-18 12:19 26.726540 -78.453157 230 38137ft 505kts
28-Sep-18 12:20 26.641242 -78.576128 230 38136ft 505kts
28-Sep-18 12:21 26.563849 -78.706293 250 38134ft 508kts
28-Sep-18 12:22 26.552685 -78.862475 269 38136ft 508kts
28-Sep-18 12:23 26.549154 -79.019224 268 38137ft 507kts
28-Sep-18 12:24 26.545884 -79.146252 268 38135ft 503kts
28-Sep-18 12:25 26.541998 -79.300253 268 38137ft 501kts
28-Sep-18 12:26 26.537252 -79.455995 268 38140ft 501kts
28-Sep-18 12:27 26.527898 -79.607750 256 36703ft 500kts
28-Sep-18 12:28 26.461458 -79.744517 235 34065ft 498kts
28-Sep-18 12:29 26.385516 -79.870096 230 32079ft 479kts
28-Sep-18 12:30 26.296606 -79.970243 221 29264ft 441kts
28-Sep-18 12:31 26.223946 -80.022695 196 27028ft 417kts
28-Sep-18 12:32 26.088644 -80.060739 191 23270ft 389kts
28-Sep-18 12:33 25.986252 -80.089892 198 20272ft 372kts
28-Sep-18 12:34 25.921812 -80.173226 242 17326ft 364kts
28-Sep-18 12:35 25.887861 -80.275956 256 14338ft 354kts
28-Sep-18 12:36 25.879198 -80.382082 266 11637ft 334kts
28-Sep-18 12:37 25.873432 -80.479738 265 9777ft 299kts
28-Sep-18 12:38 25.868119 -80.566533 265 8271ft 271kts
28-Sep-18 12:39 25.863026 -80.649383 265 6408ft 264kts
28-Sep-18 12:40 25.855385 -80.728737 236 4616ft 253kts
28-Sep-18 12:41 25.798566 -80.731361 125 3064ft 236kts
28-Sep-18 12:42 25.789837 -80.667560 94 2989ft 187kts
28-Sep-18 12:43 25.786928 -80.612228 94 2994ft 178kts
28-Sep-18 12:44 25.783799 -80.557531 94 2999ft 179kts
28-Sep-18 12:45 25.778922 -80.502509 90 3001ft 180kts
28-Sep-18 12:46 25.780508 -80.447140 89 2422ft 178kts
28-Sep-18 12:47 25.782379 -80.401846 88 1666ft 175kts
28-Sep-18 12:48 25.785039 -80.339242 89 572ft 173kts
28-Sep-18 12:49 25.786621 -80.301580 89 20ft 127kts
28-Sep-18 12:50 25.788055 -80.286838 40 20ft 17kts
28-Sep-18 12:51 25.788432 -80.286499 38 20ft 0kts
28-Sep-18 12:52 25.788965 -80.286019 39 20ft 12kts
28-Sep-18 12:53 25.792653 -80.284911 297 20ft 10kts
28-Sep-18 12:54 25.794384 -80.285506 69 20ft 2kts
28-Sep-18 12:55 25.794698 -80.284724 64 20ft 0kts
28-Sep-18 12:56 25.794698 -80.284724 64 20ft 0kts
28-Sep-18 12:57 25.794698 -80.284724 64 20ft 0kts
28-Sep-18 12:58 25.794698 -80.284724 64 20ft 0kts
28-Sep-18 12:59 25.794698 -80.284724 64 20ft 0kts
28-Sep-18 13:00 25.794698 -80.284724 64 20ft 0kts
28-Sep-18 13:01 25.794698 -80.284724 64 20ft 0kts
28-Sep-18 13:02 25.794698 -80.284724 64 20ft 0kts
28-Sep-18 13:03 25.794698 -80.284724 64 20ft 0kts
28-Sep-18 13:04 25.794698 -80.284724 64 20ft 0kts

Navigation Log

Ident Type
Flight plan parsing failed, navigation log unavailable